sensor_id;sensor_type;location;lat;lon;timestamp;pressure;altitude;pressure_sealevel;temperature;humidity
44127;BME280;29786;50.798;7.302;2023-05-11T00:04:32;99030;;;11.25;100
44127;BME280;29786;50.798;7.302;2023-05-11T00:09:29;99030;;;11.11;100
44127;BME280;29786;50.798;7.302;2023-05-11T00:15:40;99030;;;11.1;100
44127;BME280;29786;50.798;7.302;2023-05-11T00:20:36;99030;;;11.03;100
44127;BME280;29786;50.798;7.302;2023-05-11T00:25:33;99020;;;11.01;100
44127;BME280;29786;50.798;7.302;2023-05-11T00:30:29;99020;;;11.28;100
44127;BME280;29786;50.798;7.302;2023-05-11T00:35:34;99010;;;11.05;100
44127;BME280;29786;50.798;7.302;2023-05-11T00:40:31;99020;;;11.27;100
44127;BME280;29786;50.798;7.302;2023-05-11T00:46:41;99030;;;11.32;100
44127;BME280;29786;50.798;7.302;2023-05-11T00:51:38;99020;;;11.31;100
44127;BME280;29786;50.798;7.302;2023-05-11T00:56:34;99010;;;11.23;100
44127;BME280;29786;50.798;7.302;2023-05-11T01:01:31;99030;;;11.43;100
44127;BME280;29786;50.798;7.302;2023-05-11T01:06:35;99030;;;11.79;100
44127;BME280;29786;50.798;7.302;2023-05-11T01:17:42;99030;;;11.76;100
44127;BME280;29786;50.798;7.302;2023-05-11T01:22:37;99030;;;12.11;100
44127;BME280;29786;50.798;7.302;2023-05-11T01:28:28;99030;;;12.12;100
44127;BME280;29786;50.798;7.302;2023-05-11T01:33:40;99030;;;12.08;100
44127;BME280;29786;50.798;7.302;2023-05-11T01:38:36;99030;;;11.89;100
44127;BME280;29786;50.798;7.302;2023-05-11T01:43:31;99030;;;11.87;100
44127;BME280;29786;50.798;7.302;2023-05-11T01:54:39;99020;;;11.57;100
44127;BME280;29786;50.798;7.302;2023-05-11T01:59:35;99020;;;11.47;100
44127;BME280;29786;50.798;7.302;2023-05-11T02:04:32;99010;;;11.27;100
44127;BME280;29786;50.798;7.302;2023-05-11T02:09:29;99010;;;10.91;100
44127;BME280;29786;50.798;7.302;2023-05-11T02:15:40;99010;;;10.81;100
44127;BME280;29786;50.798;7.302;2023-05-11T02:20:35;99010;;;10.69;100
44127;BME280;29786;50.798;7.302;2023-05-11T02:25:32;99020;;;10.93;100
44127;BME280;29786;50.798;7.302;2023-05-11T02:30:28;99020;;;11.05;100
44127;BME280;29786;50.798;7.302;2023-05-11T02:36:39;99030;;;11.11;100
44127;BME280;29786;50.798;7.302;2023-05-11T02:41:37;99030;;;11.32;100
44127;BME280;29786;50.798;7.302;2023-05-11T02:42:52;99030;;;11.33;100
44127;BME280;29786;50.798;7.302;2023-05-11T02:46:33;99030;;;11.37;100
44127;BME280;29786;50.798;7.302;2023-05-11T02:51:30;99030;;;11.54;100
44127;BME280;29786;50.798;7.302;2023-05-11T02:57:39;99030;;;11.25;100
44127;BME280;29786;50.798;7.302;2023-05-11T03:02:36;99030;;;11.29;100
44127;BME280;29786;50.798;7.302;2023-05-11T03:07:32;99030;;;11.41;100
44127;BME280;29786;50.798;7.302;2023-05-11T03:18:40;99030;;;11.14;100
44127;BME280;29786;50.798;7.302;2023-05-11T03:23:36;99020;;;11.05;100
44127;BME280;29786;50.798;7.302;2023-05-11T03:28:33;99010;;;11.12;100
44127;BME280;29786;50.798;7.302;2023-05-11T03:33:29;99010;;;10.96;100
44127;BME280;29786;50.798;7.302;2023-05-11T03:39:40;99010;;;10.94;100
44127;BME280;29786;50.798;7.302;2023-05-11T03:44:36;99010;;;10.96;100
44127;BME280;29786;50.798;7.302;2023-05-11T03:49:34;99010;;;11.05;100
44127;BME280;29786;50.798;7.302;2023-05-11T03:54:29;99010;;;11.01;100
44127;BME280;29786;50.798;7.302;2023-05-11T04:00:40;99010;;;11.19;100
44127;BME280;29786;50.798;7.302;2023-05-11T04:04:30;99010;;;11.09;100
44127;BME280;29786;50.798;7.302;2023-05-11T04:05:37;99010;;;11.17;100
44127;BME280;29786;50.798;7.302;2023-05-11T04:10:33;99010;;;11.25;100
44127;BME280;29786;50.798;7.302;2023-05-11T04:15:30;99010;;;11.22;100
44127;BME280;29786;50.798;7.302;2023-05-11T04:21:41;99010;;;11.22;100
44127;BME280;29786;50.798;7.302;2023-05-11T04:26:37;99020;;;11.4;100
44127;BME280;29786;50.798;7.302;2023-05-11T04:31:33;99020;;;11.39;100
44127;BME280;29786;50.798;7.302;2023-05-11T04:36:30;99020;;;11.5;100
44127;BME280;29786;50.798;7.302;2023-05-11T04:41:27;99030;;;11.72;100
44127;BME280;29786;50.798;7.302;2023-05-11T04:47:37;99030;;;11.65;100
44127;BME280;29786;50.798;7.302;2023-05-11T04:52:34;99030;;;11.83;100
44127;BME280;29786;50.798;7.302;2023-05-11T04:57:30;99050;;;11.91;100
44127;BME280;29786;50.798;7.302;2023-05-11T05:03:41;99050;;;12.11;100
44127;BME280;29786;50.798;7.302;2023-05-11T05:08:37;99060;;;12.12;100
44127;BME280;29786;50.798;7.302;2023-05-11T05:13:34;99040;;;12.1;100
44127;BME280;29786;50.798;7.302;2023-05-11T05:18:30;99060;;;12.26;100
44127;BME280;29786;50.798;7.302;2023-05-11T05:24:41;99060;;;12.7;100
44127;BME280;29786;50.798;7.302;2023-05-11T05:29:38;99070;;;12.83;100
44127;BME280;29786;50.798;7.302;2023-05-11T05:34:34;99050;;;12.76;100
44127;BME280;29786;50.798;7.302;2023-05-11T05:39:31;99080;;;13.08;100
44127;BME280;29786;50.798;7.302;2023-05-11T05:45:42;99080;;;13.03;100
44127;BME280;29786;50.798;7.302;2023-05-11T05:50:38;99080;;;13.11;100
44127;BME280;29786;50.798;7.302;2023-05-11T05:55:35;99080;;;13.18;100
44127;BME280;29786;50.798;7.302;2023-05-11T06:00:31;99090;;;13.31;100
44127;BME280;29786;50.798;7.302;2023-05-11T06:05:28;99090;;;13.27;100
44127;BME280;29786;50.798;7.302;2023-05-11T06:11:38;99090;;;12.99;100
44127;BME280;29786;50.798;7.302;2023-05-11T06:16:35;99100;;;13;100
44127;BME280;29786;50.798;7.302;2023-05-11T06:21:31;99100;;;12.55;100
44127;BME280;29786;50.798;7.302;2023-05-11T06:26:28;99100;;;12.81;100
44127;BME280;29786;50.798;7.302;2023-05-11T06:32:39;99100;;;12.87;100
44127;BME280;29786;50.798;7.302;2023-05-11T06:37:35;99100;;;13.31;100
44127;BME280;29786;50.798;7.302;2023-05-11T06:42:32;99090;;;13.41;100
44127;BME280;29786;50.798;7.302;2023-05-11T06:47:28;99100;;;13.44;100
44127;BME280;29786;50.798;7.302;2023-05-11T06:53:39;99100;;;13.86;100
44127;BME280;29786;50.798;7.302;2023-05-11T06:58:35;99090;;;13.8;100
44127;BME280;29786;50.798;7.302;2023-05-11T07:03:32;99100;;;13.97;100
44127;BME280;29786;50.798;7.302;2023-05-11T07:08:28;99100;;;14.18;100
44127;BME280;29786;50.798;7.302;2023-05-11T07:14:39;99100;;;14.28;100
44127;BME280;29786;50.798;7.302;2023-05-11T07:19:36;99100;;;14.9;100
44127;BME280;29786;50.798;7.302;2023-05-11T07:24:32;99100;;;14.87;100
44127;BME280;29786;50.798;7.302;2023-05-11T07:29:29;99100;;;14.27;100
44127;BME280;29786;50.798;7.302;2023-05-11T07:35:39;99100;;;14.22;100
44127;BME280;29786;50.798;7.302;2023-05-11T07:40:36;99110;;;14.54;100
44127;BME280;29786;50.798;7.302;2023-05-11T07:45:32;99110;;;14.62;100
44127;BME280;29786;50.798;7.302;2023-05-11T07:56:40;99110;;;14.73;100
44127;BME280;29786;50.798;7.302;2023-05-11T08:01:36;99110;;;14.85;100
44127;BME280;29786;50.798;7.302;2023-05-11T08:06:33;99110;;;14.6;100
44127;BME280;29786;50.798;7.302;2023-05-11T08:11:29;99110;;;14.95;100
44127;BME280;29786;50.798;7.302;2023-05-11T08:17:40;99110;;;15.14;100
44127;BME280;29786;50.798;7.302;2023-05-11T08:22:37;99110;;;15.09;100
44127;BME280;29786;50.798;7.302;2023-05-11T08:27:33;99110;;;15.39;100
44127;BME280;29786;50.798;7.302;2023-05-11T08:32:29;99120;;;15.23;100
44127;BME280;29786;50.798;7.302;2023-05-11T08:38:40;99120;;;14.56;100
44127;BME280;29786;50.798;7.302;2023-05-11T08:43:37;99110;;;14.2;100
44127;BME280;29786;50.798;7.302;2023-05-11T08:48:33;99110;;;14.53;100
44127;BME280;29786;50.798;7.302;2023-05-11T08:53:30;99110;;;14.86;100
44127;BME280;29786;50.798;7.302;2023-05-11T08:59:41;99110;;;15.68;100
44127;BME280;29786;50.798;7.302;2023-05-11T09:04:37;99120;;;16.46;100
44127;BME280;29786;50.798;7.302;2023-05-11T09:09:33;99120;;;17.11;100
44127;BME280;29786;50.798;7.302;2023-05-11T09:14:30;99110;;;17.96;100
44127;BME280;29786;50.798;7.302;2023-05-11T09:20:41;99120;;;17.54;99.72
44127;BME280;29786;50.798;7.302;2023-05-11T09:25:37;99120;;;16.43;100
44127;BME280;29786;50.798;7.302;2023-05-11T09:30:34;99120;;;16.32;100
44127;BME280;29786;50.798;7.302;2023-05-11T09:31:48;99120;;;16.4;100
44127;BME280;29786;50.798;7.302;2023-05-11T09:35:31;99120;;;16.87;100
44127;BME280;29786;50.798;7.302;2023-05-11T09:41:41;99110;;;17.46;96.34
44127;BME280;29786;50.798;7.302;2023-05-11T09:46:38;99110;;;18.19;95.23
44127;BME280;29786;50.798;7.302;2023-05-11T09:51:35;99090;;;18.6;80.66
44127;BME280;29786;50.798;7.302;2023-05-11T09:57:03;99110;;;18.27;86.47
44127;BME280;29786;50.798;7.302;2023-05-11T10:02:41;99100;;;19.03;79.04
44127;BME280;29786;50.798;7.302;2023-05-11T10:07:38;99100;;;19.23;74.82
44127;BME280;29786;50.798;7.302;2023-05-11T10:12:34;99080;;;18.35;83.48
44127;BME280;29786;50.798;7.302;2023-05-11T10:17:31;99100;;;18.32;78.36
44127;BME280;29786;50.798;7.302;2023-05-11T10:23:41;99090;;;18.41;81.12
44127;BME280;29786;50.798;7.302;2023-05-11T10:28:38;99090;;;18.69;82.21
44127;BME280;29786;50.798;7.302;2023-05-11T10:33:34;99080;;;19.23;74.44
44127;BME280;29786;50.798;7.302;2023-05-11T10:38:31;99080;;;18.77;85.26
44127;BME280;29786;50.798;7.302;2023-05-11T10:44:04;99080;;;19.53;71.34
44127;BME280;29786;50.798;7.302;2023-05-11T10:50:46;99070;;;19.24;76.79
44127;BME280;29786;50.798;7.302;2023-05-11T10:59:38;99080;;;18.5;76.67
44127;BME280;29786;50.798;7.302;2023-05-11T11:04:45;99080;;;18.95;75.78
44127;BME280;29786;50.798;7.302;2023-05-11T11:10:39;99080;;;19.48;67.04
44127;BME280;29786;50.798;7.302;2023-05-11T11:16:07;99070;;;19.75;64.25
44127;BME280;29786;50.798;7.302;2023-05-11T11:20:44;99070;;;19.03;68.82
44127;BME280;29786;50.798;7.302;2023-05-11T11:26:01;99060;;;19.67;68.06
44127;BME280;29786;50.798;7.302;2023-05-11T11:31:39;99060;;;19.57;66.14
44127;BME280;29786;50.798;7.302;2023-05-11T11:37:07;99060;;;20.31;62.16
44127;BME280;29786;50.798;7.302;2023-05-11T11:41:32;99060;;;19.76;69.15
44127;BME280;29786;50.798;7.302;2023-05-11T11:46:29;99050;;;19.65;67.6
44127;BME280;29786;50.798;7.302;2023-05-11T11:52:39;99050;;;18.26;81.89
44127;BME280;29786;50.798;7.302;2023-05-11T11:57:43;99060;;;18.7;76.3
44127;BME280;29786;50.798;7.302;2023-05-11T12:02:32;99050;;;19;74.18
44127;BME280;29786;50.798;7.302;2023-05-11T12:07:31;99050;;;18.77;72.14
44127;BME280;29786;50.798;7.302;2023-05-11T12:13:41;99060;;;18.93;71.86
44127;BME280;29786;50.798;7.302;2023-05-11T12:18:36;99050;;;19.84;66.1
44127;BME280;29786;50.798;7.302;2023-05-11T12:22:22;99050;;;19.95;67.23
44127;BME280;29786;50.798;7.302;2023-05-11T12:23:32;99050;;;19.9;74.32
44127;BME280;29786;50.798;7.302;2023-05-11T12:28:29;99050;;;19.41;71.01
44127;BME280;29786;50.798;7.302;2023-05-11T12:34:40;99040;;;19.27;73.66
44127;BME280;29786;50.798;7.302;2023-05-11T12:39:36;99030;;;19.15;75.33
44127;BME280;29786;50.798;7.302;2023-05-11T12:44:33;99040;;;19.12;68.95
44127;BME280;29786;50.798;7.302;2023-05-11T12:49:29;99040;;;18.79;74.83
44127;BME280;29786;50.798;7.302;2023-05-11T12:55:40;99030;;;18.85;72.93
44127;BME280;29786;50.798;7.302;2023-05-11T12:59:35;99030;;;19.21;72.64
44127;BME280;29786;50.798;7.302;2023-05-11T13:05:41;99020;;;18.46;80.3
44127;BME280;29786;50.798;7.302;2023-05-11T13:10:38;99030;;;16.95;91.3
44127;BME280;29786;50.798;7.302;2023-05-11T13:15:48;99010;;;16.43;98.22
44127;BME280;29786;50.798;7.302;2023-05-11T13:20:31;99030;;;16.7;100
44127;BME280;29786;50.798;7.302;2023-05-11T13:25:27;99030;;;16.79;100
44127;BME280;29786;50.798;7.302;2023-05-11T13:31:46;99020;;;16.9;99.13
44127;BME280;29786;50.798;7.302;2023-05-11T13:36:34;99000;;;16.96;100
44127;BME280;29786;50.798;7.302;2023-05-11T13:41:31;99020;;;17.14;90.61
44127;BME280;29786;50.798;7.302;2023-05-11T13:46:27;99010;;;17.69;88.25
44127;BME280;29786;50.798;7.302;2023-05-11T13:52:38;99000;;;17.91;84.99
44127;BME280;29786;50.798;7.302;2023-05-11T14:02:31;99000;;;18.44;79.49
44127;BME280;29786;50.798;7.302;2023-05-11T14:07:28;99000;;;17.96;83.89
44127;BME280;29786;50.798;7.302;2023-05-11T14:13:38;99000;;;17.91;85.62
44127;BME280;29786;50.798;7.302;2023-05-11T14:18:35;99000;;;17.64;86.39
44127;BME280;29786;50.798;7.302;2023-05-11T14:23:31;99000;;;17.64;86.3
44127;BME280;29786;50.798;7.302;2023-05-11T14:34:39;99000;;;17.31;92.02
44127;BME280;29786;50.798;7.302;2023-05-11T14:39:35;99000;;;17.04;97.25
44127;BME280;29786;50.798;7.302;2023-05-11T14:44:32;99000;;;17.07;100
44127;BME280;29786;50.798;7.302;2023-05-11T14:49:28;99000;;;16.51;100
44127;BME280;29786;50.798;7.302;2023-05-11T14:55:39;99000;;;16.28;100
44127;BME280;29786;50.798;7.302;2023-05-11T15:00:36;99000;;;16.37;100
44127;BME280;29786;50.798;7.302;2023-05-11T15:05:32;99000;;;16.19;100
44127;BME280;29786;50.798;7.302;2023-05-11T15:10:29;99000;;;16.46;100
44127;BME280;29786;50.798;7.302;2023-05-11T15:16:39;99000;;;16.4;100
44127;BME280;29786;50.798;7.302;2023-05-11T15:21:36;99000;;;16.01;100
44127;BME280;29786;50.798;7.302;2023-05-11T15:26:32;99000;;;16.02;100
44127;BME280;29786;50.798;7.302;2023-05-11T15:31:29;99010;;;15.73;100
44127;BME280;29786;50.798;7.302;2023-05-11T15:37:39;99010;;;15.35;100
44127;BME280;29786;50.798;7.302;2023-05-11T15:42:36;99020;;;15.47;100
44127;BME280;29786;50.798;7.302;2023-05-11T15:47:33;99010;;;15.22;100
44127;BME280;29786;50.798;7.302;2023-05-11T15:52:29;99010;;;15.64;100
44127;BME280;29786;50.798;7.302;2023-05-11T15:58:40;99020;;;15.65;100
44127;BME280;29786;50.798;7.302;2023-05-11T16:03:36;99010;;;15.31;100
44127;BME280;29786;50.798;7.302;2023-05-11T16:08:33;99010;;;15.26;100
44127;BME280;29786;50.798;7.302;2023-05-11T16:13:31;99020;;;15.32;100
44127;BME280;29786;50.798;7.302;2023-05-11T16:17:12;99010;;;15.29;100
44127;BME280;29786;50.798;7.302;2023-05-11T16:19:40;99020;;;15.21;100
44127;BME280;29786;50.798;7.302;2023-05-11T16:24:37;99020;;;15.08;100
44127;BME280;29786;50.798;7.302;2023-05-11T16:29:33;99010;;;15.13;100
44127;BME280;29786;50.798;7.302;2023-05-11T16:34:30;99010;;;15.19;100
44127;BME280;29786;50.798;7.302;2023-05-11T16:40:40;99020;;;15.1;100
44127;BME280;29786;50.798;7.302;2023-05-11T16:45:37;99020;;;15.03;100
44127;BME280;29786;50.798;7.302;2023-05-11T16:50:33;99020;;;14.44;100
44127;BME280;29786;50.798;7.302;2023-05-11T16:55:30;99020;;;14.08;100
44127;BME280;29786;50.798;7.302;2023-05-11T17:01:40;99030;;;13.86;100
44127;BME280;29786;50.798;7.302;2023-05-11T17:06:37;99030;;;13.73;100
44127;BME280;29786;50.798;7.302;2023-05-11T17:11:34;99030;;;13.47;100
44127;BME280;29786;50.798;7.302;2023-05-11T17:16:30;99020;;;13.28;100
44127;BME280;29786;50.798;7.302;2023-05-11T17:22:41;99020;;;13.82;100
44127;BME280;29786;50.798;7.302;2023-05-11T17:27:38;99020;;;13.67;100
44127;BME280;29786;50.798;7.302;2023-05-11T17:32:34;99030;;;13.8;100
44127;BME280;29786;50.798;7.302;2023-05-11T17:37:30;99020;;;13.82;100
44127;BME280;29786;50.798;7.302;2023-05-11T17:43:41;99030;;;13.58;100
44127;BME280;29786;50.798;7.302;2023-05-11T17:48:38;99030;;;13.58;100
44127;BME280;29786;50.798;7.302;2023-05-11T17:53:34;99010;;;13.95;100
44127;BME280;29786;50.798;7.302;2023-05-11T17:58:31;99030;;;14.1;100
44127;BME280;29786;50.798;7.302;2023-05-11T18:04:41;99030;;;14.06;100
44127;BME280;29786;50.798;7.302;2023-05-11T18:09:38;99030;;;13.9;100
44127;BME280;29786;50.798;7.302;2023-05-11T18:14:34;99010;;;13.63;100
44127;BME280;29786;50.798;7.302;2023-05-11T18:17:03;99030;;;13.74;100
44127;BME280;29786;50.798;7.302;2023-05-11T18:19:31;99030;;;13.9;100
44127;BME280;29786;50.798;7.302;2023-05-11T18:25:42;99030;;;14.02;100
44127;BME280;29786;50.798;7.302;2023-05-11T18:30:38;99030;;;14.08;100
44127;BME280;29786;50.798;7.302;2023-05-11T18:35:35;99030;;;14.02;100
44127;BME280;29786;50.798;7.302;2023-05-11T18:40:31;99030;;;13.94;100
44127;BME280;29786;50.798;7.302;2023-05-11T18:45:28;99030;;;13.92;100
44127;BME280;29786;50.798;7.302;2023-05-11T18:51:38;99040;;;13.74;100
44127;BME280;29786;50.798;7.302;2023-05-11T18:56:35;99040;;;13.63;100
44127;BME280;29786;50.798;7.302;2023-05-11T19:01:32;99050;;;13.44;100
44127;BME280;29786;50.798;7.302;2023-05-11T19:12:39;99060;;;13.26;100
44127;BME280;29786;50.798;7.302;2023-05-11T19:17:35;99070;;;13.18;100
44127;BME280;29786;50.798;7.302;2023-05-11T19:22:32;99070;;;13.17;100
44127;BME280;29786;50.798;7.302;2023-05-11T19:27:28;99070;;;13.18;100
44127;BME280;29786;50.798;7.302;2023-05-11T19:33:39;99080;;;13.12;100
44127;BME280;29786;50.798;7.302;2023-05-11T19:38:35;99080;;;13.06;100
44127;BME280;29786;50.798;7.302;2023-05-11T19:43:33;99080;;;12.98;100
44127;BME280;29786;50.798;7.302;2023-05-11T19:48:29;99090;;;12.97;100
44127;BME280;29786;50.798;7.302;2023-05-11T19:54:39;99090;;;12.92;100
44127;BME280;29786;50.798;7.302;2023-05-11T19:59:36;99090;;;12.95;100
44127;BME280;29786;50.798;7.302;2023-05-11T20:04:32;99090;;;13.02;100
44127;BME280;29786;50.798;7.302;2023-05-11T20:09:29;99090;;;12.88;100
44127;BME280;29786;50.798;7.302;2023-05-11T20:15:39;99090;;;12.91;100
44127;BME280;29786;50.798;7.302;2023-05-11T20:20:36;99100;;;12.9;100
44127;BME280;29786;50.798;7.302;2023-05-11T20:25:33;99100;;;12.82;100
44127;BME280;29786;50.798;7.302;2023-05-11T20:36:40;99090;;;12.78;100
44127;BME280;29786;50.798;7.302;2023-05-11T20:41:36;99090;;;12.72;100
44127;BME280;29786;50.798;7.302;2023-05-11T20:46:33;99090;;;12.78;100
44127;BME280;29786;50.798;7.302;2023-05-11T20:51:29;99080;;;12.7;100
44127;BME280;29786;50.798;7.302;2023-05-11T20:57:40;99080;;;12.68;100
44127;BME280;29786;50.798;7.302;2023-05-11T21:02:37;99080;;;12.65;100
44127;BME280;29786;50.798;7.302;2023-05-11T21:07:33;99080;;;12.7;100
44127;BME280;29786;50.798;7.302;2023-05-11T21:12:30;99070;;;12.77;100
44127;BME280;29786;50.798;7.302;2023-05-11T21:17:34;99060;;;12.7;100
44127;BME280;29786;50.798;7.302;2023-05-11T21:22:31;99080;;;12.76;100
44127;BME280;29786;50.798;7.302;2023-05-11T21:28:41;99080;;;12.86;100
44127;BME280;29786;50.798;7.302;2023-05-11T21:33:38;99070;;;12.86;100
44127;BME280;29786;50.798;7.302;2023-05-11T21:38:35;99050;;;12.74;100
44127;BME280;29786;50.798;7.302;2023-05-11T21:43:31;99060;;;12.78;100
44127;BME280;29786;50.798;7.302;2023-05-11T21:48:28;99070;;;12.68;100
44127;BME280;29786;50.798;7.302;2023-05-11T21:54:38;99070;;;12.75;100
44127;BME280;29786;50.798;7.302;2023-05-11T22:04:32;99060;;;12.7;100
44127;BME280;29786;50.798;7.302;2023-05-11T22:09:28;99060;;;12.73;100
44127;BME280;29786;50.798;7.302;2023-05-11T22:15:39;99060;;;12.8;100
44127;BME280;29786;50.798;7.302;2023-05-11T22:20:35;99060;;;12.83;100
44127;BME280;29786;50.798;7.302;2023-05-11T22:25:32;99060;;;12.74;100
44127;BME280;29786;50.798;7.302;2023-05-11T22:30:28;99060;;;12.86;100
44127;BME280;29786;50.798;7.302;2023-05-11T22:36:39;99060;;;12.93;100
44127;BME280;29786;50.798;7.302;2023-05-11T22:41:35;99060;;;12.85;100
44127;BME280;29786;50.798;7.302;2023-05-11T22:46:32;99060;;;12.83;100
44127;BME280;29786;50.798;7.302;2023-05-11T22:51:28;99060;;;12.75;100
44127;BME280;29786;50.798;7.302;2023-05-11T22:57:39;99060;;;12.76;100
44127;BME280;29786;50.798;7.302;2023-05-11T23:02:36;99060;;;12.78;100
44127;BME280;29786;50.798;7.302;2023-05-11T23:07:32;99050;;;12.81;100
44127;BME280;29786;50.798;7.302;2023-05-11T23:12:29;99050;;;12.83;100
44127;BME280;29786;50.798;7.302;2023-05-11T23:18:39;99050;;;12.7;100
44127;BME280;29786;50.798;7.302;2023-05-11T23:23:36;99050;;;12.67;100
44127;BME280;29786;50.798;7.302;2023-05-11T23:28:32;99040;;;12.72;100
44127;BME280;29786;50.798;7.302;2023-05-11T23:33:29;99040;;;12.69;100
44127;BME280;29786;50.798;7.302;2023-05-11T23:39:40;99040;;;12.79;100
44127;BME280;29786;50.798;7.302;2023-05-11T23:44:36;99040;;;12.78;100
44127;BME280;29786;50.798;7.302;2023-05-11T23:49:33;99030;;;12.85;100
44127;BME280;29786;50.798;7.302;2023-05-11T23:54:29;99030;;;12.82;100
